createdAt,value
2023-03-29T00:01:00.780Z,101869.94
2023-03-29T00:03:28.462Z,101870.22
2023-03-29T00:06:02.822Z,101858.50
2023-03-29T00:08:32.316Z,101866.28
2023-03-29T00:10:59.548Z,101856.94
2023-03-29T00:13:27.681Z,101852.72
2023-03-29T00:15:55.073Z,101837.56
2023-03-29T00:18:22.682Z,101830.38
2023-03-29T00:20:56.908Z,101829.25
2023-03-29T00:23:25.075Z,101825.41
2023-03-29T00:25:54.884Z,101830.28
2023-03-29T00:28:22.031Z,101817.84
2023-03-29T00:30:50.468Z,101815.47
2023-03-29T00:33:22.883Z,101806.22
2023-03-29T00:35:53.206Z,101799.50
2023-03-29T00:38:19.850Z,101806.22
2023-03-29T00:40:47.087Z,101793.22
2023-03-29T00:43:15.009Z,101790.59
2023-03-29T00:45:41.892Z,101787.88
2023-03-29T00:48:12.391Z,101783.06
2023-03-29T00:50:45.414Z,101778.94
2023-03-29T00:53:17.463Z,101780.16
2023-03-29T00:55:55.803Z,101770.41
2023-03-29T00:58:31.825Z,101767.72
2023-03-29T01:01:08.732Z,101770.22
2023-03-29T01:03:46.798Z,101764.81
2023-03-29T01:06:18.249Z,101766.66
2023-03-29T01:08:50.873Z,101762.00
2023-03-29T01:11:22.377Z,101751.34
2023-03-29T01:13:58.400Z,101749.66
2023-03-29T01:16:28.429Z,101750.69
2023-03-29T01:18:58.278Z,101744.81
2023-03-29T01:21:32.318Z,101736.66
2023-03-29T01:24:20.670Z,101736.75
2023-03-29T01:27:15.564Z,101728.63
2023-03-29T01:29:49.140Z,101724.31
2023-03-29T01:32:25.013Z,101720.66
2023-03-29T01:35:10.496Z,101716.94
2023-03-29T01:37:41.242Z,101716.28
2023-03-29T01:40:08.338Z,101717.31
2023-03-29T01:42:43.825Z,101711.50
2023-03-29T01:45:41.475Z,101712.00
2023-03-29T01:48:22.683Z,101705.72
2023-03-29T01:50:56.146Z,101698.50
2023-03-29T01:53:36.329Z,101688.16
2023-03-29T01:56:20.544Z,101688.72
2023-03-29T01:58:52.999Z,101682.81
2023-03-29T02:01:28.581Z,101687.50
2023-03-29T02:04:02.766Z,101675.53
2023-03-29T02:06:34.075Z,101670.50
2023-03-29T02:09:01.453Z,101675.09
2023-03-29T02:11:29.479Z,101674.69
2023-03-29T02:13:59.060Z,101664.72
2023-03-29T02:16:25.783Z,101662.81
2023-03-29T02:18:56.200Z,101662.28
2023-03-29T02:21:34.136Z,101660.97
2023-03-29T02:24:06.591Z,101665.84
2023-03-29T02:26:33.752Z,101656.78
2023-03-29T02:29:00.592Z,101656.59
2023-03-29T02:31:51.913Z,101648.16
2023-03-29T02:34:38.864Z,101639.59
2023-03-29T02:37:12.417Z,101637.69
2023-03-29T02:39:39.988Z,101631.91
2023-03-29T02:42:09.069Z,101633.69
2023-03-29T02:44:40.644Z,101635.94
2023-03-29T02:47:16.168Z,101621.53
2023-03-29T02:49:43.250Z,101618.09
2023-03-29T02:52:14.334Z,101613.97
2023-03-29T02:54:43.330Z,101616.22
2023-03-29T02:57:11.167Z,101613.59
2023-03-29T02:59:38.619Z,101617.25
2023-03-29T03:02:05.691Z,101612.03
2023-03-29T03:04:35.262Z,101611.75
2023-03-29T03:07:02.372Z,101604.16
2023-03-29T03:09:28.846Z,101597.94
2023-03-29T03:11:55.591Z,101601.94
2023-03-29T03:14:22.960Z,101593.31
2023-03-29T03:16:50.511Z,101594.91
2023-03-29T03:19:17.074Z,101591.81
2023-03-29T03:21:44.091Z,101584.75
2023-03-29T03:24:10.480Z,101589.50
2023-03-29T03:26:38.859Z,101583.72
2023-03-29T03:29:06.604Z,101576.25
2023-03-29T03:31:54.184Z,101573.09
2023-03-29T03:34:39.638Z,101567.75
2023-03-29T03:37:06.309Z,101568.88
2023-03-29T03:39:34.283Z,101571.22
2023-03-29T03:42:02.684Z,101564.13
2023-03-29T03:44:29.169Z,101570.25
2023-03-29T03:47:13.680Z,101570.47
2023-03-29T03:49:42.078Z,101568.59
2023-03-29T03:52:08.991Z,101568.03
2023-03-29T03:54:35.509Z,101571.03
2023-03-29T03:57:24.745Z,101570.16
2023-03-29T03:59:52.851Z,101580.44
2023-03-29T04:02:39.394Z,101570.84
2023-03-29T04:05:08.678Z,101566.16
2023-03-29T04:07:38.365Z,101567.84
2023-03-29T04:10:22.816Z,101570.28
2023-03-29T04:12:52.887Z,101563.34
2023-03-29T04:15:20.637Z,101565.25
2023-03-29T04:17:59.884Z,101556.53
2023-03-29T04:20:52.495Z,101558.31
2023-03-29T04:23:22.054Z,101554.69
2023-03-29T04:25:49.180Z,101554.78
2023-03-29T04:28:41.555Z,101550.97
2023-03-29T04:31:21.420Z,101551.31
2023-03-29T04:34:03.332Z,101550.88
2023-03-29T04:36:29.958Z,101547.75
2023-03-29T04:38:56.983Z,101546.56
2023-03-29T04:41:27.275Z,101544.16
2023-03-29T04:44:08.463Z,101547.84
2023-03-29T04:46:35.213Z,101547.31
2023-03-29T04:49:13.753Z,101547.03
2023-03-29T04:51:47.797Z,101546.00
2023-03-29T04:54:17.106Z,101539.84
2023-03-29T04:57:02.135Z,101539.09
2023-03-29T05:00:15.377Z,101537.03
2023-03-29T05:02:57.898Z,101535.91
2023-03-29T05:05:25.678Z,101536.41
2023-03-29T05:07:53.067Z,101532.09
2023-03-29T05:10:23.884Z,101537.97
2023-03-29T05:12:54.198Z,101537.53
2023-03-29T05:15:22.510Z,101537.03
2023-03-29T05:17:49.940Z,101526.50
2023-03-29T05:20:17.518Z,101530.69
2023-03-29T05:22:47.063Z,101530.69
2023-03-29T05:25:26.287Z,101530.69
2023-03-29T05:27:53.085Z,101533.97
2023-03-29T05:30:19.586Z,101530.31
2023-03-29T05:33:02.185Z,101522.28
2023-03-29T05:35:29.732Z,101517.63
2023-03-29T05:37:58.156Z,101518.91
2023-03-29T05:40:26.139Z,101517.69
2023-03-29T05:43:12.613Z,101508.56
2023-03-29T05:45:39.090Z,101505.84
2023-03-29T05:48:05.909Z,101510.13
2023-03-29T05:50:33.214Z,101505.84
2023-03-29T05:53:00.072Z,101504.00
2023-03-29T05:55:27.008Z,101501.38
2023-03-29T05:57:53.462Z,101496.97
2023-03-29T06:00:25.580Z,101496.88
2023-03-29T06:03:13.357Z,101498.72
2023-03-29T06:05:56.599Z,101499.09
2023-03-29T06:08:23.313Z,101498.34
2023-03-29T06:11:04.542Z,101495.34
2023-03-29T06:14:06.654Z,101499.53
2023-03-29T06:16:36.371Z,101491.41
2023-03-29T06:19:03.004Z,101501.22
2023-03-29T06:21:31.784Z,101495.88
2023-03-29T06:23:59.655Z,101503.09
2023-03-29T06:26:29.188Z,101501.13
2023-03-29T06:28:56.214Z,101508.97
2023-03-29T06:31:23.059Z,101504.41
2023-03-29T06:33:51.467Z,101502.31
2023-03-29T06:36:36.661Z,101501.47
2023-03-29T06:39:04.163Z,101504.47
2023-03-29T06:41:51.547Z,101499.59
2023-03-29T06:44:32.811Z,101499.41
2023-03-29T06:47:05.807Z,101499.84
2023-03-29T06:49:32.260Z,101508.78
2023-03-29T06:52:14.279Z,101505.09
2023-03-29T06:54:41.503Z,101501.72
2023-03-29T06:57:08.124Z,101503.00
2023-03-29T06:59:35.008Z,101501.00
2023-03-29T07:02:18.105Z,101495.78
2023-03-29T07:04:48.696Z,101505.88
2023-03-29T07:07:22.551Z,101507.53
2023-03-29T07:09:55.578Z,101486.22
2023-03-29T07:12:41.019Z,101495.03
2023-03-29T07:15:09.344Z,101487.38
2023-03-29T07:18:03.551Z,101487.72
2023-03-29T07:20:31.283Z,101490.81
2023-03-29T07:23:05.969Z,101491.69
2023-03-29T07:25:33.868Z,101495.66
2023-03-29T07:28:00.567Z,101502.56
2023-03-29T07:30:31.621Z,101493.03
2023-03-29T07:33:10.644Z,101493.88
2023-03-29T07:35:43.851Z,101489.78
2023-03-29T07:38:10.597Z,101494.81
2023-03-29T07:40:41.248Z,101489.78
2023-03-29T07:43:34.338Z,101496.28
2023-03-29T07:46:05.594Z,101501.03
2023-03-29T07:48:36.229Z,101490.84
2023-03-29T07:51:06.334Z,101490.19
2023-03-29T07:53:41.515Z,101494.09
2023-03-29T07:56:22.869Z,101487.38
2023-03-29T07:58:54.517Z,101482.69
2023-03-29T08:01:21.628Z,101476.28
2023-03-29T08:04:00.503Z,101477.84
2023-03-29T08:06:47.042Z,101478.44
2023-03-29T08:09:13.597Z,101477.72
2023-03-29T08:11:42.986Z,101475.69
2023-03-29T08:14:18.209Z,101473.81
2023-03-29T08:17:07.361Z,101470.66
2023-03-29T08:19:39.591Z,101482.28
2023-03-29T08:22:08.157Z,101478.19
2023-03-29T08:24:55.218Z,101476.28
2023-03-29T08:27:25.898Z,101477.53
2023-03-29T08:29:52.401Z,101483.66
2023-03-29T08:32:18.884Z,101470.13
2023-03-29T08:34:46.742Z,101467.78
2023-03-29T08:37:26.760Z,101469.91
2023-03-29T08:39:55.677Z,101473.44
2023-03-29T08:43:01.977Z,101467.88
2023-03-29T08:46:01.609Z,101466.41
2023-03-29T08:48:31.860Z,101458.41
2023-03-29T08:51:05.202Z,101460.25
2023-03-29T08:53:42.345Z,101456.84
2023-03-29T08:56:24.950Z,101459.59
2023-03-29T08:59:19.538Z,101447.25
2023-03-29T09:01:50.245Z,101455.13
2023-03-29T09:04:22.709Z,101460.16
2023-03-29T09:06:59.326Z,101453.25
2023-03-29T09:09:34.451Z,101456.84
2023-03-29T09:12:22.952Z,101459.88
2023-03-29T09:15:11.525Z,101454.16
2023-03-29T09:17:56.635Z,101453.81
2023-03-29T09:20:33.621Z,101455.38
2023-03-29T09:23:25.479Z,101445.22
2023-03-29T09:26:45.741Z,101445.75
2023-03-29T09:29:58.147Z,101443.88
2023-03-29T09:32:55.682Z,101444.09
2023-03-29T09:35:39.026Z,101447.94
2023-03-29T09:38:11.050Z,101438.41
2023-03-29T09:40:44.763Z,101445.81
2023-03-29T09:43:28.713Z,101442.22
2023-03-29T09:45:58.798Z,101446.75
2023-03-29T09:48:27.269Z,101437.91
2023-03-29T09:50:57.125Z,101433.88
2023-03-29T09:53:24.299Z,101425.84
2023-03-29T09:56:11.097Z,101433.03
2023-03-29T09:58:48.109Z,101424.28
2023-03-29T10:01:20.259Z,101425.84
2023-03-29T10:03:53.473Z,101413.78
2023-03-29T10:06:24.435Z,101415.19
2023-03-29T10:08:58.770Z,101420.56
2023-03-29T10:11:40.961Z,101417.75
2023-03-29T10:14:33.356Z,101416.19
2023-03-29T10:17:00.048Z,101412.13
2023-03-29T10:19:34.632Z,101410.94
2023-03-29T10:22:05.491Z,101410.81
2023-03-29T10:24:31.899Z,101409.03
2023-03-29T10:27:01.664Z,101406.50
2023-03-29T10:29:36.746Z,101407.41
2023-03-29T10:32:14.483Z,101410.66
2023-03-29T10:34:41.446Z,101409.00
2023-03-29T10:37:10.659Z,101416.66
2023-03-29T10:39:39.034Z,101414.41
2023-03-29T10:42:08.349Z,101413.09
2023-03-29T10:44:36.608Z,101414.19
2023-03-29T10:47:13.445Z,101408.06
2023-03-29T10:49:42.827Z,101415.84
2023-03-29T10:52:09.422Z,101419.28
2023-03-29T10:54:36.650Z,101417.63
2023-03-29T10:57:09.395Z,101410.72
2023-03-29T10:59:47.556Z,101402.09
2023-03-29T11:02:14.198Z,101406.41
2023-03-29T11:05:07.674Z,101399.00
2023-03-29T11:07:41.426Z,101389.91
2023-03-29T11:10:20.183Z,101389.91
2023-03-29T11:12:52.723Z,101392.06
2023-03-29T11:15:46.921Z,101395.78
2023-03-29T11:18:22.602Z,101401.28
2023-03-29T11:21:13.563Z,101401.16
2023-03-29T11:23:59.601Z,101393.00
2023-03-29T11:26:53.590Z,101390.13
2023-03-29T11:29:23.615Z,101388.47
2023-03-29T11:32:04.247Z,101395.03
2023-03-29T11:34:43.606Z,101398.03
2023-03-29T11:37:25.287Z,101406.16
2023-03-29T11:40:29.986Z,101400.41
2023-03-29T11:43:00.370Z,101399.94
2023-03-29T11:45:35.380Z,101397.09
2023-03-29T11:48:04.858Z,101383.66
2023-03-29T11:51:03.679Z,101390.00
2023-03-29T11:53:39.893Z,101391.09
2023-03-29T11:56:13.477Z,101395.03
2023-03-29T11:58:44.478Z,101388.31
2023-03-29T12:01:17.784Z,101378.00
2023-03-29T12:03:49.100Z,101381.25
2023-03-29T12:06:40.517Z,101377.00
2023-03-29T12:09:22.696Z,101390.53
2023-03-29T12:12:09.846Z,101390.88
2023-03-29T12:14:49.445Z,101389.81
2023-03-29T12:17:20.542Z,101381.94
2023-03-29T12:19:55.491Z,101380.84
2023-03-29T12:22:22.304Z,101393.31
2023-03-29T12:24:52.070Z,101386.00
2023-03-29T12:27:31.660Z,101391.00
2023-03-29T12:30:33.196Z,101386.44
2023-03-29T12:33:21.412Z,101377.84
2023-03-29T12:36:38.509Z,101377.09
2023-03-29T12:39:24.535Z,101368.47
2023-03-29T12:42:26.317Z,101382.66
2023-03-29T12:45:40.040Z,101366.03
2023-03-29T12:48:07.601Z,101361.69
2023-03-29T12:50:36.962Z,101362.38
2023-03-29T12:53:25.358Z,101360.78
2023-03-29T12:56:09.170Z,101361.44
2023-03-29T12:58:38.810Z,101357.69
2023-03-29T13:01:30.064Z,101359.63
2023-03-29T13:03:59.423Z,101352.94
2023-03-29T13:07:02.633Z,101354.81
2023-03-29T13:09:53.149Z,101357.38
2023-03-29T13:12:26.981Z,101358.38
2023-03-29T13:14:57.876Z,101356.72
2023-03-29T13:17:30.838Z,101347.34
2023-03-29T13:20:19.466Z,101345.16
2023-03-29T13:23:17.470Z,101353.66
2023-03-29T13:26:09.473Z,101341.16
2023-03-29T13:29:16.145Z,101343.72
2023-03-29T13:32:01.720Z,101337.00
2023-03-29T13:34:46.450Z,101336.47
2023-03-29T13:37:21.744Z,101333.59
2023-03-29T13:39:51.634Z,101335.06
2023-03-29T13:42:23.781Z,101325.94
2023-03-29T13:44:51.258Z,101317.63
2023-03-29T13:47:43.201Z,101323.22
2023-03-29T13:50:33.008Z,101328.09
2023-03-29T13:53:05.024Z,101313.56
2023-03-29T13:55:38.422Z,101317.13
2023-03-29T13:58:37.361Z,101313.56
2023-03-29T14:01:13.347Z,101309.25
2023-03-29T14:03:44.917Z,101293.59
2023-03-29T14:06:15.500Z,101291.06
2023-03-29T14:08:44.149Z,101287.22
2023-03-29T14:11:24.106Z,101284.13
2023-03-29T14:13:55.241Z,101291.09
2023-03-29T14:16:21.970Z,101302.47
2023-03-29T14:18:51.269Z,101298.41
2023-03-29T14:21:19.965Z,101294.09
2023-03-29T14:23:53.720Z,101293.59
2023-03-29T14:26:23.996Z,101287.88
2023-03-29T14:28:52.989Z,101289.13
2023-03-29T14:31:35.010Z,101297.00
2023-03-29T14:34:04.752Z,101290.06
2023-03-29T14:36:33.277Z,101288.25
2023-03-29T14:39:08.068Z,101282.97
2023-03-29T14:41:37.474Z,101289.22
2023-03-29T14:44:06.595Z,101282.97
2023-03-29T14:46:34.226Z,101280.78
2023-03-29T14:49:02.118Z,101278.25
2023-03-29T14:51:31.031Z,101274.22
2023-03-29T14:54:00.213Z,101271.03
2023-03-29T14:56:27.513Z,101272.59
2023-03-29T14:58:56.486Z,101274.50
2023-03-29T15:01:25.747Z,101268.28
2023-03-29T15:04:11.665Z,101260.25
2023-03-29T15:06:40.994Z,101255.56
2023-03-29T15:09:14.796Z,101257.22
2023-03-29T15:11:41.602Z,101252.38
2023-03-29T15:14:14.129Z,101263.34
2023-03-29T15:16:43.542Z,101265.00
2023-03-29T15:19:16.032Z,101256.41
2023-03-29T15:21:43.433Z,101245.84
2023-03-29T15:24:31.296Z,101248.19
2023-03-29T15:27:13.412Z,101242.50
2023-03-29T15:29:42.343Z,101246.78
2023-03-29T15:32:36.051Z,101243.75
2023-03-29T15:35:09.173Z,101242.63
2023-03-29T15:37:36.709Z,101228.63
2023-03-29T15:40:09.588Z,101229.72
2023-03-29T15:42:36.707Z,101229.03
2023-03-29T15:45:05.132Z,101235.41
2023-03-29T15:47:31.648Z,101229.16
2023-03-29T15:49:58.095Z,101221.09
2023-03-29T15:52:24.632Z,101222.34
2023-03-29T15:54:51.399Z,101210.81
2023-03-29T15:57:18.706Z,101215.56
2023-03-29T15:59:45.363Z,101206.78
2023-03-29T16:02:16.518Z,101209.81
2023-03-29T16:04:43.550Z,101200.81
2023-03-29T16:07:13.934Z,101204.13
2023-03-29T16:09:40.366Z,101193.28
2023-03-29T16:12:06.917Z,101199.84
2023-03-29T16:14:33.994Z,101189.13
2023-03-29T16:17:01.407Z,101192.31
2023-03-29T16:19:29.519Z,101194.41
2023-03-29T16:21:57.052Z,101191.63
2023-03-29T16:24:26.195Z,101189.66
2023-03-29T16:26:55.713Z,101198.84
2023-03-29T16:29:23.226Z,101189.00
2023-03-29T16:31:50.501Z,101195.22
2023-03-29T16:34:19.146Z,101194.41
2023-03-29T16:36:47.645Z,101188.56
2023-03-29T16:39:14.704Z,101192.47
2023-03-29T16:41:42.323Z,101198.19
2023-03-29T16:44:15.138Z,101195.09
2023-03-29T16:46:42.088Z,101196.09
2023-03-29T16:49:13.881Z,101190.81
2023-03-29T16:51:40.539Z,101197.63
2023-03-29T16:54:07.540Z,101189.69
2023-03-29T16:56:36.434Z,101199.59
2023-03-29T16:59:03.323Z,101193.88
2023-03-29T17:01:30.303Z,101198.03
2023-03-29T17:03:57.218Z,101193.88
2023-03-29T17:06:24.101Z,101188.06
2023-03-29T17:08:50.522Z,101181.25
2023-03-29T17:11:17.645Z,101187.63
2023-03-29T17:13:44.470Z,101178.31
2023-03-29T17:16:11.117Z,101178.31
2023-03-29T17:18:37.859Z,101177.34
2023-03-29T17:21:05.086Z,101173.03
2023-03-29T17:23:31.532Z,101182.63
2023-03-29T17:25:57.994Z,101183.44
2023-03-29T17:28:24.549Z,101182.50
2023-03-29T17:30:51.788Z,101181.66
2023-03-29T17:33:22.484Z,101181.78
2023-03-29T17:35:49.359Z,101184.16
2023-03-29T17:38:15.988Z,101188.47
2023-03-29T17:40:42.817Z,101190.00
2023-03-29T17:43:09.249Z,101184.72
2023-03-29T17:45:36.016Z,101180.41
2023-03-29T17:48:04.798Z,101183.88
2023-03-29T17:50:32.907Z,101182.06
2023-03-29T17:52:59.297Z,101183.72
2023-03-29T17:55:26.419Z,101181.09
2023-03-29T17:57:53.095Z,101179.44
2023-03-29T18:00:20.143Z,101179.56
2023-03-29T18:02:46.700Z,101180.41
2023-03-29T18:05:13.343Z,101180.28
2023-03-29T18:07:39.771Z,101187.75
2023-03-29T18:10:07.733Z,101179.31
2023-03-29T18:12:34.140Z,101174.16
2023-03-29T18:15:00.949Z,101169.72
2023-03-29T18:17:27.834Z,101161.09
2023-03-29T18:19:54.529Z,101161.81
2023-03-29T18:22:21.582Z,101152.50
2023-03-29T18:24:49.150Z,101163.75
2023-03-29T18:27:16.011Z,101156.94
2023-03-29T18:29:43.938Z,101158.88
2023-03-29T18:32:11.042Z,101154.19
2023-03-29T18:34:39.006Z,101160.00
2023-03-29T18:37:05.980Z,101167.78
2023-03-29T18:39:34.498Z,101168.88
2023-03-29T18:42:01.665Z,101166.13
2023-03-29T18:44:28.641Z,101173.31
2023-03-29T18:46:55.238Z,101179.16
2023-03-29T18:49:21.626Z,101181.38
2023-03-29T18:51:49.946Z,101175.69
2023-03-29T18:54:17.538Z,101168.88
2023-03-29T18:56:44.298Z,101167.63
2023-03-29T18:59:10.723Z,101164.59
2023-03-29T19:01:37.306Z,101161.25
2023-03-29T19:04:03.951Z,101159.00
2023-03-29T19:06:30.572Z,101160.69
2023-03-29T19:08:59.461Z,101161.94
2023-03-29T19:11:28.815Z,101170.25
2023-03-29T19:13:55.509Z,101169.56
2023-03-29T19:16:22.484Z,101158.88
2023-03-29T19:18:49.252Z,101156.47
2023-03-29T19:21:15.812Z,101159.00
2023-03-29T19:23:42.263Z,101157.72
2023-03-29T19:26:10.611Z,101163.13
2023-03-29T19:28:37.270Z,101161.19
2023-03-29T19:31:04.548Z,101153.56
2023-03-29T19:33:32.272Z,101151.91
2023-03-29T19:35:58.946Z,101147.16
2023-03-29T19:38:25.660Z,101146.91
2023-03-29T19:40:52.588Z,101153.81
2023-03-29T19:43:20.616Z,101151.06
2023-03-29T19:45:48.948Z,101144.97
2023-03-29T19:48:22.401Z,101146.47
2023-03-29T19:50:50.153Z,101140.09
2023-03-29T19:53:16.778Z,101132.84
2023-03-29T19:55:45.123Z,101136.88
2023-03-29T19:58:12.317Z,101135.22
2023-03-29T20:00:39.043Z,101131.91
2023-03-29T20:03:09.207Z,101127.03
2023-03-29T20:05:38.478Z,101124.66
2023-03-29T20:08:04.949Z,101108.59
2023-03-29T20:10:31.725Z,101111.91
2023-03-29T20:12:58.521Z,101106.63
2023-03-29T20:15:28.615Z,101097.19
2023-03-29T20:17:59.427Z,101091.94
2023-03-29T20:20:26.716Z,101091.13
2023-03-29T20:22:57.914Z,101088.34
2023-03-29T20:25:24.904Z,101085.97
2023-03-29T20:27:51.390Z,101081.94
2023-03-29T20:30:17.984Z,101084.16
2023-03-29T20:32:44.589Z,101081.22
2023-03-29T20:35:11.683Z,101082.34
2023-03-29T20:37:38.107Z,101083.34
2023-03-29T20:40:05.986Z,101076.50
2023-03-29T20:42:34.224Z,101073.06
2023-03-29T20:45:01.461Z,101071.41
2023-03-29T20:47:29.356Z,101066.13
2023-03-29T20:49:56.773Z,101062.25
2023-03-29T20:52:24.327Z,101055.59
2023-03-29T20:54:51.269Z,101055.03
2023-03-29T20:57:20.484Z,101048.94
2023-03-29T20:59:49.066Z,101044.88
2023-03-29T21:02:20.753Z,101046.31
2023-03-29T21:04:52.127Z,101040.59
2023-03-29T21:07:19.894Z,101038.22
2023-03-29T21:09:48.246Z,101036.44
2023-03-29T21:12:14.765Z,101032.00
2023-03-29T21:14:41.560Z,101037.28
2023-03-29T21:17:09.288Z,101039.19
2023-03-29T21:19:37.998Z,101040.59
2023-03-29T21:22:04.956Z,101037.69
2023-03-29T21:24:33.037Z,101026.59
2023-03-29T21:27:00.476Z,101017.84
2023-03-29T21:29:27.250Z,101017.16
2023-03-29T21:31:54.014Z,101012.59
2023-03-29T21:34:20.658Z,101019.50
2023-03-29T21:36:47.222Z,101017.72
2023-03-29T21:39:14.223Z,101029.06
2023-03-29T21:41:40.649Z,101031.44
2023-03-29T21:44:07.262Z,101015.34
2023-03-29T21:46:33.782Z,100998.44
2023-03-29T21:49:00.518Z,100991.38
2023-03-29T21:51:27.025Z,100982.34
2023-03-29T21:53:53.528Z,100982.75
2023-03-29T21:56:19.978Z,100982.34
2023-03-29T21:58:46.697Z,100971.09
2023-03-29T22:01:13.235Z,100978.72
2023-03-29T22:03:39.841Z,100971.41
2023-03-29T22:06:09.308Z,100969.16
2023-03-29T22:08:38.975Z,100967.38
2023-03-29T22:11:08.634Z,100964.59
2023-03-29T22:13:35.422Z,100964.31
2023-03-29T22:16:06.351Z,100959.88
2023-03-29T22:18:42.862Z,100962.66
2023-03-29T22:21:15.942Z,100954.47
2023-03-29T22:23:44.212Z,100945.19
2023-03-29T22:26:12.179Z,100933.81
2023-03-29T22:28:39.939Z,100929.38
2023-03-29T22:31:09.539Z,100926.31
2023-03-29T22:33:37.202Z,100928.28
2023-03-29T22:36:13.041Z,100924.66
2023-03-29T22:38:39.756Z,100915.22
2023-03-29T22:41:06.496Z,100916.34
2023-03-29T22:43:33.015Z,100913.84
2023-03-29T22:45:59.468Z,100896.38
2023-03-29T22:48:26.068Z,100897.47
2023-03-29T22:50:52.583Z,100887.75
2023-03-29T22:53:19.241Z,100887.34
2023-03-29T22:55:46.151Z,100884.84
2023-03-29T22:58:12.776Z,100885.53
2023-03-29T23:00:39.183Z,100874.72
2023-03-29T23:03:06.536Z,100864.16
2023-03-29T23:05:33.480Z,100866.94
2023-03-29T23:08:00.153Z,100862.38
2023-03-29T23:10:28.871Z,100848.09
2023-03-29T23:13:08.443Z,100848.94
2023-03-29T23:15:42.720Z,100838.09
2023-03-29T23:18:13.016Z,100848.94
2023-03-29T23:20:40.683Z,100841.03
2023-03-29T23:23:08.471Z,100836.41
2023-03-29T23:25:35.196Z,100819.06
2023-03-29T23:28:01.970Z,100816.28
2023-03-29T23:30:29.680Z,100816.69
2023-03-29T23:32:58.282Z,100813.66
2023-03-29T23:35:24.881Z,100812.13
2023-03-29T23:37:51.491Z,100799.34
2023-03-29T23:40:18.004Z,100792.31
2023-03-29T23:42:45.757Z,100802.16
2023-03-29T23:45:15.611Z,100802.16
2023-03-29T23:47:44.094Z,100795.34
2023-03-29T23:50:13.234Z,100793.00
2023-03-29T23:52:41.413Z,100789.53
2023-03-29T23:55:12.415Z,100785.78
2023-03-29T23:57:38.899Z,100780.50
